createdAt,value
2019-02-23T00:01:27.177Z,6.53
2019-02-23T00:03:55.518Z,7.10
2019-02-23T00:06:29.743Z,6.33
2019-02-23T00:08:54.270Z,6.58
2019-02-23T00:11:25.187Z,7.43
2019-02-23T00:13:53.492Z,7.00
2019-02-23T00:16:22.150Z,7.60
2019-02-23T00:18:50.529Z,7.33
2019-02-23T00:21:18.938Z,7.63
2019-02-23T00:23:47.302Z,7.07
2019-02-23T00:26:15.621Z,8.57
2019-02-23T00:28:43.969Z,6.77
2019-02-23T00:31:12.706Z,8.90
2019-02-23T00:33:41.058Z,8.18
2019-02-23T00:36:09.547Z,7.90
2019-02-23T00:38:38.017Z,9.20
2019-02-23T00:41:06.425Z,7.95
2019-02-23T00:43:34.732Z,8.98
2019-02-23T00:46:03.619Z,8.33
2019-02-23T00:48:31.973Z,8.00
2019-02-23T00:51:00.325Z,8.18
2019-02-23T00:53:28.725Z,8.00
2019-02-23T00:55:57.062Z,8.63
2019-02-23T00:58:25.458Z,9.00
2019-02-23T01:00:53.806Z,8.67
2019-02-23T01:03:22.155Z,8.10
2019-02-23T01:05:50.531Z,8.53
2019-02-23T01:08:18.879Z,7.53
2019-02-23T01:10:57.468Z,7.70
2019-02-23T01:13:17.581Z,8.30
2019-02-23T01:15:45.923Z,8.07
2019-02-23T01:18:14.262Z,7.80
2019-02-23T01:20:42.707Z,8.50
2019-02-23T01:23:11.350Z,8.43
2019-02-23T01:25:39.725Z,8.83
2019-02-23T01:28:08.120Z,7.83
2019-02-23T01:30:36.557Z,8.77
2019-02-23T01:33:05.050Z,8.80
2019-02-23T01:35:33.385Z,8.98
2019-02-23T01:38:01.724Z,8.33
2019-02-23T01:40:30.054Z,8.80
2019-02-23T01:42:58.463Z,7.83
2019-02-23T01:45:26.853Z,8.57
2019-02-23T01:47:55.225Z,8.57
2019-02-23T01:50:23.638Z,8.57
2019-02-23T01:52:51.995Z,8.25
2019-02-23T01:55:20.356Z,8.23
2019-02-23T01:57:48.728Z,8.53
2019-02-23T02:00:18.221Z,8.43
2019-02-23T02:02:47.394Z,8.57
2019-02-23T02:05:15.981Z,9.43
2019-02-23T02:07:44.392Z,9.40
2019-02-23T02:10:14.474Z,9.33
2019-02-23T02:12:42.787Z,9.43
2019-02-23T02:15:14.337Z,8.97
2019-02-23T02:17:42.722Z,9.23
2019-02-23T02:20:11.817Z,9.28
2019-02-23T02:22:40.275Z,9.87
2019-02-23T02:25:09.189Z,8.47
2019-02-23T02:27:37.528Z,10.88
2019-02-23T02:30:08.813Z,9.50
2019-02-23T02:32:37.163Z,10.00
2019-02-23T02:35:06.373Z,10.70
2019-02-23T02:37:34.723Z,9.50
2019-02-23T02:40:03.303Z,9.70
2019-02-23T02:42:31.641Z,9.10
2019-02-23T02:45:00.030Z,9.40
2019-02-23T02:47:28.575Z,9.30
2019-02-23T02:49:57.909Z,9.00
2019-02-23T02:52:26.248Z,9.80
2019-02-23T02:54:54.658Z,8.88
2019-02-23T02:57:22.965Z,10.13
2019-02-23T02:59:51.309Z,8.97
2019-02-23T03:02:19.730Z,9.80
2019-02-23T03:04:48.090Z,9.53
2019-02-23T03:07:16.517Z,9.95
2019-02-23T03:09:44.861Z,9.97
2019-02-23T03:12:13.492Z,9.30
2019-02-23T03:14:41.824Z,9.08
2019-02-23T03:17:10.646Z,9.47
2019-02-23T03:19:38.949Z,10.20
2019-02-23T03:22:07.345Z,10.43
2019-02-23T03:24:35.695Z,9.60
2019-02-23T03:27:04.049Z,9.75
2019-02-23T03:29:32.386Z,9.23
2019-02-23T03:32:00.739Z,9.43
2019-02-23T03:34:29.068Z,9.90
2019-02-23T03:36:57.418Z,10.47
2019-02-23T03:39:25.774Z,9.77
2019-02-23T03:41:54.129Z,11.00
2019-02-23T03:44:22.491Z,10.20
2019-02-23T03:46:52.182Z,10.50
2019-02-23T03:49:20.505Z,11.30
2019-02-23T03:51:48.892Z,10.17
2019-02-23T03:54:17.220Z,10.95
2019-02-23T03:56:45.550Z,11.30
2019-02-23T03:59:14.145Z,11.07
2019-02-23T04:01:42.502Z,11.07
2019-02-23T04:04:11.258Z,11.05
2019-02-23T04:06:39.591Z,10.17
2019-02-23T04:09:07.945Z,10.07
2019-02-23T04:11:36.266Z,13.00
2019-02-23T04:14:04.605Z,10.63
2019-02-23T04:16:33.025Z,10.63
2019-02-23T04:19:01.390Z,10.20
2019-02-23T04:21:29.740Z,10.60
2019-02-23T04:23:58.088Z,11.07
2019-02-23T04:26:26.458Z,11.75
2019-02-23T04:28:54.803Z,12.00
2019-02-23T04:31:23.129Z,11.68
2019-02-23T04:33:51.492Z,11.60
2019-02-23T04:36:19.842Z,11.50
2019-02-23T04:38:48.233Z,11.03
2019-02-23T04:41:16.878Z,11.55
2019-02-23T04:43:45.233Z,12.17
2019-02-23T04:46:13.738Z,11.35
2019-02-23T04:48:42.122Z,11.67
2019-02-23T04:51:14.301Z,11.40
2019-02-23T04:53:40.816Z,10.70
2019-02-23T04:56:09.545Z,11.90
2019-02-23T04:58:37.907Z,10.67
2019-02-23T05:01:06.228Z,11.57
2019-02-23T05:03:34.600Z,11.40
2019-02-23T05:06:02.930Z,11.85
2019-02-23T05:08:31.289Z,12.17
2019-02-23T05:10:59.639Z,11.83
2019-02-23T05:13:28.006Z,10.50
2019-02-23T05:15:56.361Z,11.90
2019-02-23T05:18:24.723Z,12.13
2019-02-23T05:20:53.043Z,11.90
2019-02-23T05:23:21.387Z,11.57
2019-02-23T05:25:49.776Z,11.60
2019-02-23T05:28:18.144Z,12.20
2019-02-23T05:30:46.732Z,12.47
2019-02-23T05:33:15.074Z,11.77
2019-02-23T05:35:43.495Z,11.30
2019-02-23T05:38:12.523Z,11.87
2019-02-23T05:40:40.906Z,11.73
2019-02-23T05:43:09.475Z,12.27
2019-02-23T05:45:37.830Z,11.50
2019-02-23T05:48:06.154Z,11.37
2019-02-23T05:50:34.514Z,12.20
2019-02-23T05:53:02.890Z,11.83
2019-02-23T05:55:31.229Z,13.57
2019-02-23T05:57:59.577Z,13.90
2019-02-23T06:00:28.013Z,11.77
2019-02-23T06:02:56.339Z,11.70
2019-02-23T06:05:24.694Z,12.00
2019-02-23T06:07:53.258Z,11.30
2019-02-23T06:10:21.641Z,12.80
2019-02-23T06:12:50.073Z,12.43
2019-02-23T06:15:18.445Z,11.53
2019-02-23T06:17:46.743Z,12.17
2019-02-23T06:20:15.107Z,12.03
2019-02-23T06:22:43.478Z,11.27
2019-02-23T06:25:12.076Z,11.80
2019-02-23T06:27:40.389Z,11.77
2019-02-23T06:30:10.951Z,11.83
2019-02-23T06:32:39.308Z,12.00
2019-02-23T06:35:10.619Z,12.13
2019-02-23T06:37:38.989Z,11.70
2019-02-23T06:40:11.069Z,12.13
2019-02-23T06:42:39.373Z,11.68
2019-02-23T06:45:11.745Z,10.97
2019-02-23T06:47:40.075Z,13.00
2019-02-23T06:50:09.085Z,11.03
2019-02-23T06:52:37.430Z,10.50
2019-02-23T06:55:07.400Z,11.63
2019-02-23T06:57:35.727Z,11.90
2019-02-23T07:00:08.094Z,11.43
2019-02-23T07:02:36.422Z,11.12
2019-02-23T07:05:05.207Z,11.47
2019-02-23T07:07:33.577Z,12.00
2019-02-23T07:10:02.039Z,11.97
2019-02-23T07:12:30.414Z,11.50
2019-02-23T07:14:58.746Z,11.60
2019-02-23T07:17:27.132Z,11.83
2019-02-23T07:19:55.471Z,10.97
2019-02-23T07:22:23.817Z,11.63
2019-02-23T07:24:52.185Z,12.03
2019-02-23T07:27:20.556Z,12.00
2019-02-23T07:29:48.922Z,11.73
2019-02-23T07:32:17.290Z,11.47
2019-02-23T07:34:45.618Z,11.90
2019-02-23T07:37:13.983Z,12.20
2019-02-23T07:39:42.647Z,11.00
2019-02-23T07:42:11.022Z,11.80
2019-02-23T07:44:39.527Z,10.55
2019-02-23T07:47:08.150Z,12.47
2019-02-23T07:49:36.488Z,11.30
2019-02-23T07:52:04.908Z,11.22
2019-02-23T07:54:33.324Z,10.60
2019-02-23T07:57:01.695Z,12.03
2019-02-23T07:59:31.794Z,10.90
2019-02-23T08:02:00.102Z,11.40
2019-02-23T08:04:28.687Z,11.67
2019-02-23T08:06:57.019Z,12.00
2019-02-23T08:09:25.388Z,11.00
2019-02-23T08:11:53.748Z,11.35
2019-02-23T08:14:22.121Z,12.80
2019-02-23T08:16:50.482Z,12.10
2019-02-23T08:19:18.819Z,11.70
2019-02-23T08:21:47.145Z,12.07
2019-02-23T08:24:15.478Z,11.60
2019-02-23T08:26:43.855Z,10.80
2019-02-23T08:29:12.220Z,11.50
2019-02-23T08:31:40.554Z,11.50
2019-02-23T08:34:09.379Z,11.20
2019-02-23T08:36:37.714Z,11.03
2019-02-23T08:39:06.578Z,10.55
2019-02-23T08:41:34.896Z,12.03
2019-02-23T08:44:03.279Z,12.20
2019-02-23T08:46:31.637Z,11.08
2019-02-23T08:48:59.978Z,9.53
2019-02-23T08:51:28.311Z,9.43
2019-02-23T08:53:56.750Z,10.90
2019-02-23T08:56:25.089Z,10.63
2019-02-23T08:58:53.435Z,10.90
2019-02-23T09:01:21.777Z,10.63
2019-02-23T09:03:50.092Z,10.50
2019-02-23T09:06:18.486Z,11.27
2019-02-23T09:08:47.077Z,9.45
2019-02-23T09:11:15.497Z,11.00
2019-02-23T09:13:43.874Z,10.90
2019-02-23T09:16:12.217Z,10.60
2019-02-23T09:18:40.548Z,11.55
2019-02-23T09:21:09.553Z,10.60
2019-02-23T09:23:37.875Z,10.73
2019-02-23T09:26:06.324Z,11.77
2019-02-23T09:28:34.632Z,10.77
2019-02-23T09:31:03.679Z,10.70
2019-02-23T09:33:32.118Z,9.80
2019-02-23T09:36:00.666Z,10.13
2019-02-23T09:38:29.081Z,11.13
2019-02-23T09:40:57.459Z,10.37
2019-02-23T09:43:25.783Z,10.50
2019-02-23T09:45:54.166Z,11.05
2019-02-23T09:48:22.539Z,9.80
2019-02-23T09:50:51.222Z,10.83
2019-02-23T09:53:19.601Z,10.23
2019-02-23T09:55:47.954Z,10.97
2019-02-23T09:58:16.293Z,10.63
2019-02-23T10:00:44.678Z,11.60
2019-02-23T10:03:13.033Z,9.10
2019-02-23T10:05:41.390Z,10.17
2019-02-23T10:08:09.992Z,10.43
2019-02-23T10:10:38.327Z,9.95
2019-02-23T10:13:07.140Z,10.23
2019-02-23T10:15:35.531Z,10.93
2019-02-23T10:18:03.913Z,11.10
2019-02-23T10:20:32.260Z,10.30
2019-02-23T10:23:00.745Z,10.30
2019-02-23T10:25:29.127Z,10.60
2019-02-23T10:27:59.313Z,10.40
2019-02-23T10:30:27.805Z,10.20
2019-02-23T10:32:56.173Z,9.30
2019-02-23T10:35:24.541Z,11.27
2019-02-23T10:37:52.937Z,9.25
2019-02-23T10:40:21.259Z,10.10
2019-02-23T10:42:49.609Z,9.73
2019-02-23T10:45:17.959Z,10.15
2019-02-23T10:47:46.532Z,9.70
2019-02-23T10:50:15.501Z,9.77
2019-02-23T10:52:43.932Z,11.05
2019-02-23T10:55:13.710Z,10.10
2019-02-23T10:57:42.113Z,9.10
2019-02-23T11:00:15.978Z,9.97
2019-02-23T11:02:44.373Z,9.35
2019-02-23T11:05:12.997Z,8.70
2019-02-23T11:07:41.438Z,9.07
2019-02-23T11:10:12.144Z,10.32
2019-02-23T11:12:40.559Z,9.50
2019-02-23T11:15:11.255Z,9.45
2019-02-23T11:17:40.589Z,8.93
2019-02-23T11:20:11.571Z,8.97
2019-02-23T11:22:39.905Z,10.27
2019-02-23T11:25:11.796Z,10.10
2019-02-23T11:27:41.059Z,9.50
2019-02-23T11:30:13.583Z,8.77
2019-02-23T11:32:41.921Z,9.20
2019-02-23T11:35:12.279Z,9.40
2019-02-23T11:37:40.618Z,8.90
2019-02-23T11:40:11.446Z,9.03
2019-02-23T11:42:39.796Z,9.10
2019-02-23T11:45:09.701Z,9.10
2019-02-23T11:47:38.161Z,8.77
2019-02-23T11:50:10.833Z,9.25
2019-02-23T11:52:39.544Z,9.13
2019-02-23T11:55:09.048Z,9.98
2019-02-23T11:57:37.440Z,9.00
2019-02-23T12:00:09.840Z,8.87
2019-02-23T12:02:38.135Z,8.57
2019-02-23T12:05:07.353Z,8.75
2019-02-23T12:07:35.710Z,8.40
2019-02-23T12:10:05.184Z,7.80
2019-02-23T12:12:33.526Z,8.23
2019-02-23T12:15:01.906Z,8.13
2019-02-23T12:17:30.251Z,8.23
2019-02-23T12:19:58.629Z,8.23
2019-02-23T12:22:26.984Z,7.47
2019-02-23T12:24:55.304Z,8.20
2019-02-23T12:27:23.653Z,8.30
2019-02-23T12:29:52.123Z,7.75
2019-02-23T12:32:20.488Z,8.57
2019-02-23T12:34:49.168Z,8.60
2019-02-23T12:37:17.470Z,8.77
2019-02-23T12:39:45.842Z,8.88
2019-02-23T12:42:14.246Z,7.27
2019-02-23T12:44:42.580Z,8.40
2019-02-23T12:47:11.027Z,8.83
2019-02-23T12:49:39.370Z,9.33
2019-02-23T12:52:08.467Z,8.00
2019-02-23T12:54:36.785Z,8.30
2019-02-23T12:57:05.277Z,7.42
2019-02-23T12:59:33.622Z,7.70
2019-02-23T13:02:02.043Z,8.20
2019-02-23T13:04:30.379Z,7.40
2019-02-23T13:06:58.757Z,8.33
2019-02-23T13:09:29.021Z,7.25
2019-02-23T13:12:03.693Z,7.53
2019-02-23T13:14:39.326Z,7.53
2019-02-23T13:17:14.008Z,8.23
2019-02-23T13:19:48.837Z,7.45
2019-02-23T13:22:22.689Z,7.42
2019-02-23T13:24:57.366Z,7.08
2019-02-23T13:27:31.211Z,6.63
2019-02-23T13:30:04.968Z,6.80
2019-02-23T13:32:40.684Z,7.33
2019-02-23T13:35:15.351Z,7.90
2019-02-23T13:37:50.974Z,7.13
2019-02-23T13:40:23.793Z,7.67
2019-02-23T13:42:56.524Z,7.05
2019-02-23T13:45:29.692Z,6.53
2019-02-23T13:48:03.466Z,6.90
2019-02-23T13:50:37.313Z,7.40
2019-02-23T13:53:13.371Z,7.23
2019-02-23T13:55:47.047Z,6.40
2019-02-23T13:58:19.645Z,6.90
2019-02-23T14:00:52.503Z,6.10
2019-02-23T14:03:26.131Z,6.37
2019-02-23T14:05:58.954Z,5.20
2019-02-23T14:08:32.874Z,5.50
2019-02-23T14:11:07.912Z,6.10
2019-02-23T14:13:39.970Z,6.50
2019-02-23T14:16:13.661Z,5.63
2019-02-23T14:18:48.414Z,5.73
2019-02-23T14:21:21.112Z,6.40
2019-02-23T14:23:54.253Z,6.65
2019-02-23T14:26:27.141Z,5.92
2019-02-23T14:29:01.124Z,6.53
2019-02-23T14:31:33.231Z,5.83
2019-02-23T14:34:06.040Z,5.77
2019-02-23T14:36:39.706Z,5.47
2019-02-23T14:39:15.431Z,6.43
2019-02-23T14:41:50.054Z,5.53
2019-02-23T14:44:25.885Z,6.00
2019-02-23T14:46:59.870Z,5.80
2019-02-23T14:49:35.750Z,6.40
2019-02-23T14:52:10.518Z,6.07
2019-02-23T14:54:41.439Z,6.73
2019-02-23T14:57:14.226Z,5.43
2019-02-23T14:59:48.283Z,6.30
2019-02-23T15:02:22.207Z,6.30
2019-02-23T15:04:56.853Z,5.53
2019-02-23T15:07:27.359Z,5.15
2019-02-23T15:10:02.162Z,5.90
2019-02-23T15:12:37.844Z,4.90
2019-02-23T15:15:10.636Z,5.80
2019-02-23T15:17:44.237Z,6.03
2019-02-23T15:20:17.904Z,6.17
2019-02-23T15:22:50.462Z,5.67
2019-02-23T15:25:25.164Z,5.50
2019-02-23T15:27:58.704Z,5.97
2019-02-23T15:30:31.794Z,5.97
2019-02-23T15:33:03.510Z,6.40
2019-02-23T15:35:34.007Z,6.03
2019-02-23T15:38:05.622Z,7.00
2019-02-23T15:40:40.277Z,5.80
2019-02-23T15:43:15.125Z,5.70
2019-02-23T15:45:48.330Z,6.53
2019-02-23T15:48:21.178Z,5.43
2019-02-23T15:50:49.563Z,6.13
2019-02-23T15:53:18.118Z,5.80
2019-02-23T15:55:46.467Z,6.30
2019-02-23T15:58:14.881Z,6.00
2019-02-23T16:00:43.504Z,5.10
2019-02-23T16:03:11.858Z,5.80
2019-02-23T16:05:40.209Z,5.77
2019-02-23T16:08:08.674Z,6.30
2019-02-23T16:10:36.998Z,6.65
2019-02-23T16:13:05.363Z,6.20
2019-02-23T16:15:33.750Z,5.03
2019-02-23T16:18:02.174Z,6.47
2019-02-23T16:20:30.526Z,5.80
2019-02-23T16:22:58.879Z,6.07
2019-02-23T16:25:38.052Z,6.30
2019-02-23T16:27:57.547Z,6.30
2019-02-23T16:30:25.959Z,6.17
2019-02-23T16:32:54.278Z,5.90
2019-02-23T16:35:22.737Z,6.17
2019-02-23T16:37:51.270Z,6.13
2019-02-23T16:40:19.616Z,6.03
2019-02-23T16:42:47.992Z,6.47
2019-02-23T16:45:16.342Z,6.60
2019-02-23T16:47:44.666Z,6.77
2019-02-23T16:50:13.054Z,5.70
2019-02-23T16:52:41.490Z,6.30
2019-02-23T16:55:10.117Z,6.00
2019-02-23T16:57:38.478Z,6.43
2019-02-23T17:00:08.917Z,6.40
2019-02-23T17:02:37.250Z,6.60
2019-02-23T17:05:07.528Z,6.50
2019-02-23T17:07:35.889Z,7.00
2019-02-23T17:10:05.128Z,6.90
2019-02-23T17:12:33.828Z,6.00
2019-02-23T17:15:02.164Z,7.10
2019-02-23T17:17:30.507Z,6.90
2019-02-23T17:19:59.290Z,6.30
2019-02-23T17:22:27.699Z,6.73
2019-02-23T17:24:56.111Z,6.60
2019-02-23T17:27:35.765Z,7.80
2019-02-23T17:29:54.892Z,6.50
2019-02-23T17:32:23.236Z,7.13
2019-02-23T17:34:51.556Z,8.40
2019-02-23T17:37:19.916Z,8.13
2019-02-23T17:39:48.250Z,7.80
2019-02-23T17:42:27.666Z,7.27
2019-02-23T17:44:47.016Z,7.33
2019-02-23T17:47:15.374Z,7.60
2019-02-23T17:49:43.794Z,7.23
2019-02-23T17:52:12.237Z,9.00
2019-02-23T17:54:40.571Z,7.93
2019-02-23T17:57:10.099Z,8.00
2019-02-23T17:59:38.451Z,8.00
2019-02-23T18:02:06.892Z,7.50
2019-02-23T18:04:35.356Z,8.33
2019-02-23T18:07:03.718Z,8.75
2019-02-23T18:09:32.198Z,9.10
2019-02-23T18:12:00.558Z,8.17
2019-02-23T18:14:30.136Z,8.83
2019-02-23T18:16:58.477Z,8.50
2019-02-23T18:19:26.887Z,9.03
2019-02-23T18:21:55.297Z,9.37
2019-02-23T18:24:23.611Z,9.37
2019-02-23T18:26:51.976Z,8.28
2019-02-23T18:29:20.319Z,8.38
2019-02-23T18:31:48.684Z,8.87
2019-02-23T18:34:17.025Z,9.43
2019-02-23T18:36:45.376Z,8.45
2019-02-23T18:39:14.195Z,8.90
2019-02-23T18:41:42.554Z,9.47
2019-02-23T18:44:11.353Z,8.90
2019-02-23T18:46:39.680Z,9.15
2019-02-23T18:49:07.993Z,7.93
2019-02-23T18:51:36.319Z,9.07
2019-02-23T18:54:04.653Z,8.53
2019-02-23T18:56:33.045Z,9.00
2019-02-23T18:59:01.397Z,8.50
2019-02-23T19:01:29.792Z,9.18
2019-02-23T19:03:58.205Z,8.18
2019-02-23T19:06:26.535Z,9.17
2019-02-23T19:08:54.914Z,8.35
2019-02-23T19:11:23.303Z,8.35
2019-02-23T19:13:51.644Z,9.00
2019-02-23T19:16:20.041Z,7.80
2019-02-23T19:18:48.380Z,8.65
2019-02-23T19:21:16.811Z,8.03
2019-02-23T19:23:45.184Z,8.80
2019-02-23T19:26:13.738Z,8.48
2019-02-23T19:28:43.382Z,9.10
2019-02-23T19:31:12.356Z,8.80
2019-02-23T19:33:40.731Z,7.73
2019-02-23T19:36:09.080Z,8.75
2019-02-23T19:38:37.414Z,9.43
2019-02-23T19:41:05.748Z,9.20
2019-02-23T19:43:34.095Z,8.30
2019-02-23T19:46:02.439Z,9.28
2019-02-23T19:48:30.837Z,9.63
2019-02-23T19:51:02.857Z,8.70
2019-02-23T19:53:31.299Z,9.83
2019-02-23T19:55:59.694Z,8.60
2019-02-23T19:58:28.073Z,9.77
2019-02-23T20:00:56.408Z,10.20
2019-02-23T20:03:24.758Z,9.43
2019-02-23T20:05:53.117Z,9.37
2019-02-23T20:08:21.452Z,8.68
2019-02-23T20:10:49.856Z,9.10
2019-02-23T20:13:18.207Z,9.28
2019-02-23T20:15:46.549Z,9.38
2019-02-23T20:18:14.882Z,8.40
2019-02-23T20:20:43.218Z,9.87
2019-02-23T20:23:12.152Z,9.27
2019-02-23T20:25:40.511Z,9.13
2019-02-23T20:28:08.948Z,8.20
2019-02-23T20:30:37.264Z,8.47
2019-02-23T20:33:05.636Z,9.40
2019-02-23T20:35:34.243Z,8.58
2019-02-23T20:38:02.740Z,8.23
2019-02-23T20:40:31.120Z,8.57
2019-02-23T20:42:59.455Z,8.57
2019-02-23T20:45:27.850Z,8.73
2019-02-23T20:47:56.281Z,8.38
2019-02-23T20:50:24.646Z,8.73
2019-02-23T20:52:53.018Z,8.77
2019-02-23T20:55:21.379Z,8.77
2019-02-23T20:57:49.810Z,8.43
2019-02-23T21:00:18.224Z,8.70
2019-02-23T21:02:46.560Z,8.80
2019-02-23T21:05:15.435Z,9.08
2019-02-23T21:07:43.810Z,7.85
2019-02-23T21:10:13.984Z,8.10
2019-02-23T21:12:42.327Z,8.38
2019-02-23T21:15:11.932Z,8.80
2019-02-23T21:17:40.253Z,9.28
2019-02-23T21:20:10.236Z,8.70
2019-02-23T21:22:38.618Z,8.00
2019-02-23T21:25:08.221Z,9.53
2019-02-23T21:27:36.537Z,9.43
2019-02-23T21:30:06.926Z,8.47
2019-02-23T21:32:35.305Z,8.70
2019-02-23T21:35:04.952Z,9.00
2019-02-23T21:37:33.309Z,8.83
2019-02-23T21:40:01.725Z,7.95
2019-02-23T21:42:30.078Z,8.70
2019-02-23T21:44:58.417Z,8.40
2019-02-23T21:47:26.821Z,9.50
2019-02-23T21:49:55.269Z,9.10
2019-02-23T21:52:23.600Z,9.88
2019-02-23T21:54:51.930Z,9.90
2019-02-23T21:57:22.428Z,10.67
2019-02-23T21:59:50.800Z,9.90
2019-02-23T22:02:19.232Z,9.78
2019-02-23T22:04:47.547Z,10.13
2019-02-23T22:07:15.933Z,8.23
2019-02-23T22:09:44.259Z,9.70
2019-02-23T22:12:12.717Z,9.53
2019-02-23T22:14:41.185Z,10.13
2019-02-23T22:17:09.765Z,9.65
2019-02-23T22:19:38.080Z,9.03
2019-02-23T22:22:06.488Z,9.87
2019-02-23T22:24:34.794Z,9.40
2019-02-23T22:27:03.247Z,8.77
2019-02-23T22:29:31.589Z,9.60
2019-02-23T22:31:59.914Z,9.10
2019-02-23T22:34:28.329Z,8.93
2019-02-23T22:36:57.135Z,8.88
2019-02-23T22:39:25.522Z,8.93
2019-02-23T22:41:53.912Z,8.47
2019-02-23T22:44:22.608Z,8.27
2019-02-23T22:46:50.979Z,9.20
2019-02-23T22:49:19.328Z,9.60
2019-02-23T22:51:47.732Z,9.40
2019-02-23T22:54:16.098Z,10.10
2019-02-23T22:56:44.474Z,9.93
2019-02-23T22:59:13.291Z,8.90
2019-02-23T23:01:42.206Z,9.35
2019-02-23T23:04:11.116Z,9.00
2019-02-23T23:07:05.041Z,10.20
2019-02-23T23:09:34.001Z,9.25
2019-02-23T23:12:02.356Z,9.27
2019-02-23T23:14:30.742Z,9.80
2019-02-23T23:16:59.063Z,9.77
2019-02-23T23:19:27.543Z,8.50
2019-02-23T23:21:56.812Z,8.07
2019-02-23T23:24:25.263Z,10.48
2019-02-23T23:26:53.619Z,8.80
2019-02-23T23:29:21.982Z,9.13
2019-02-23T23:31:50.345Z,9.40
2019-02-23T23:34:18.675Z,9.27
2019-02-23T23:36:47.110Z,9.43
2019-02-23T23:39:15.451Z,9.23
2019-02-23T23:41:43.805Z,8.77
2019-02-23T23:44:12.280Z,10.03
2019-02-23T23:46:40.630Z,9.60
2019-02-23T23:49:09.072Z,8.60
2019-02-23T23:51:37.380Z,9.57
2019-02-23T23:54:05.738Z,8.10
2019-02-23T23:56:34.106Z,9.07
2019-02-23T23:59:02.456Z,9.90
